sensor_id;sensor_type;location;lat;lon;timestamp;temperature;humidity
35129;DHT22;21301;43.626;10.580;2023-05-02T00:02:07;15.10;99.90
35129;DHT22;21301;43.626;10.580;2023-05-02T00:05:41;15.20;99.90
35129;DHT22;21301;43.626;10.580;2023-05-02T00:09:21;15.00;99.90
35129;DHT22;21301;43.626;10.580;2023-05-02T00:15:43;15.00;99.90
35129;DHT22;21301;43.626;10.580;2023-05-02T00:25:23;15.00;99.90
35129;DHT22;21301;43.626;10.580;2023-05-02T00:28:07;15.00;99.90
35129;DHT22;21301;43.626;10.580;2023-05-02T00:31:24;15.00;99.90
35129;DHT22;21301;43.626;10.580;2023-05-02T00:34:11;15.00;99.90
35129;DHT22;21301;43.626;10.580;2023-05-02T00:41:06;15.20;99.90
35129;DHT22;21301;43.626;10.580;2023-05-02T00:44:48;15.40;99.90
35129;DHT22;21301;43.626;10.580;2023-05-02T00:48:14;15.50;99.90
35129;DHT22;21301;43.626;10.580;2023-05-02T00:51:14;15.40;99.90
35129;DHT22;21301;43.626;10.580;2023-05-02T00:54:09;15.20;99.90
35129;DHT22;21301;43.626;10.580;2023-05-02T00:56:37;15.20;99.90
35129;DHT22;21301;43.626;10.580;2023-05-02T00:59:08;15.30;99.90
35129;DHT22;21301;43.626;10.580;2023-05-02T01:08:02;15.30;99.90
35129;DHT22;21301;43.626;10.580;2023-05-02T01:10:59;15.40;99.90
35129;DHT22;21301;43.626;10.580;2023-05-02T01:13:59;15.40;99.90
35129;DHT22;21301;43.626;10.580;2023-05-02T01:16:42;15.40;99.90
35129;DHT22;21301;43.626;10.580;2023-05-02T01:19:15;15.20;99.90
35129;DHT22;21301;43.626;10.580;2023-05-02T01:21:57;15.10;99.90
35129;DHT22;21301;43.626;10.580;2023-05-02T01:24:36;15.20;99.90
35129;DHT22;21301;43.626;10.580;2023-05-02T01:27:14;15.30;99.90
35129;DHT22;21301;43.626;10.580;2023-05-02T01:30:09;15.40;99.90
35129;DHT22;21301;43.626;10.580;2023-05-02T01:32:41;15.30;99.90
35129;DHT22;21301;43.626;10.580;2023-05-02T01:35:21;15.40;99.90
35129;DHT22;21301;43.626;10.580;2023-05-02T01:38:13;15.40;99.90
35129;DHT22;21301;43.626;10.580;2023-05-02T01:40:44;15.50;99.90
35129;DHT22;21301;43.626;10.580;2023-05-02T01:43:22;15.40;99.90
35129;DHT22;21301;43.626;10.580;2023-05-02T01:46:17;15.30;99.90
35129;DHT22;21301;43.626;10.580;2023-05-02T01:49:01;15.20;99.90
35129;DHT22;21301;43.626;10.580;2023-05-02T01:51:29;15.00;99.90
35129;DHT22;21301;43.626;10.580;2023-05-02T01:54:32;14.90;99.90
35129;DHT22;21301;43.626;10.580;2023-05-02T01:57:53;14.80;99.90
35129;DHT22;21301;43.626;10.580;2023-05-02T02:01:07;14.80;99.90
35129;DHT22;21301;43.626;10.580;2023-05-02T02:03:58;14.60;99.90
35129;DHT22;21301;43.626;10.580;2023-05-02T02:06:41;14.60;99.90
35129;DHT22;21301;43.626;10.580;2023-05-02T02:10:40;14.60;99.90
35129;DHT22;21301;43.626;10.580;2023-05-02T02:13:17;14.60;99.90
35129;DHT22;21301;43.626;10.580;2023-05-02T02:32:37;14.30;99.90
35129;DHT22;21301;43.626;10.580;2023-05-02T02:35:04;14.40;99.90
35129;DHT22;21301;43.626;10.580;2023-05-02T02:37:32;14.50;99.90
35129;DHT22;21301;43.626;10.580;2023-05-02T02:40:17;14.60;99.90
35129;DHT22;21301;43.626;10.580;2023-05-02T02:43:02;14.60;99.90
35129;DHT22;21301;43.626;10.580;2023-05-02T02:48:18;14.80;99.90
35129;DHT22;21301;43.626;10.580;2023-05-02T02:51:12;14.80;99.90
35129;DHT22;21301;43.626;10.580;2023-05-02T02:56:29;14.90;99.90
35129;DHT22;21301;43.626;10.580;2023-05-02T02:59:25;14.90;99.90
35129;DHT22;21301;43.626;10.580;2023-05-02T03:02:06;15.00;99.90
35129;DHT22;21301;43.626;10.580;2023-05-02T03:04:40;15.00;99.90
35129;DHT22;21301;43.626;10.580;2023-05-02T03:07:08;15.00;99.90
35129;DHT22;21301;43.626;10.580;2023-05-02T03:09:45;14.90;99.90
35129;DHT22;21301;43.626;10.580;2023-05-02T03:12:15;14.90;99.90
35129;DHT22;21301;43.626;10.580;2023-05-02T03:14:42;15.00;99.90
35129;DHT22;21301;43.626;10.580;2023-05-02T03:17:08;15.10;99.90
35129;DHT22;21301;43.626;10.580;2023-05-02T03:19:35;15.20;99.90
35129;DHT22;21301;43.626;10.580;2023-05-02T03:22:03;15.30;99.90
35129;DHT22;21301;43.626;10.580;2023-05-02T03:24:29;15.10;99.90
35129;DHT22;21301;43.626;10.580;2023-05-02T03:26:57;15.10;99.90
35129;DHT22;21301;43.626;10.580;2023-05-02T03:29:28;15.20;99.90
35129;DHT22;21301;43.626;10.580;2023-05-02T03:31:54;15.20;99.90
35129;DHT22;21301;43.626;10.580;2023-05-02T03:34:21;15.20;99.90
35129;DHT22;21301;43.626;10.580;2023-05-02T03:36:48;15.20;99.90
35129;DHT22;21301;43.626;10.580;2023-05-02T03:39:15;15.20;99.90
35129;DHT22;21301;43.626;10.580;2023-05-02T03:41:42;15.00;99.90
35129;DHT22;21301;43.626;10.580;2023-05-02T03:44:12;14.80;99.90
35129;DHT22;21301;43.626;10.580;2023-05-02T03:46:39;14.80;99.90
35129;DHT22;21301;43.626;10.580;2023-05-02T03:49:09;15.00;99.90
35129;DHT22;21301;43.626;10.580;2023-05-02T03:51:36;14.80;99.90
35129;DHT22;21301;43.626;10.580;2023-05-02T03:54:02;14.70;99.90
35129;DHT22;21301;43.626;10.580;2023-05-02T03:56:28;14.80;99.90
35129;DHT22;21301;43.626;10.580;2023-05-02T03:59:09;14.80;99.90
35129;DHT22;21301;43.626;10.580;2023-05-02T04:01:36;14.90;99.90
35129;DHT22;21301;43.626;10.580;2023-05-02T04:04:03;14.80;99.90
35129;DHT22;21301;43.626;10.580;2023-05-02T04:06:34;14.70;99.90
35129;DHT22;21301;43.626;10.580;2023-05-02T04:09:04;14.80;99.90
35129;DHT22;21301;43.626;10.580;2023-05-02T04:11:37;14.90;99.90
35129;DHT22;21301;43.626;10.580;2023-05-02T04:14:05;15.00;99.90
35129;DHT22;21301;43.626;10.580;2023-05-02T04:16:31;15.00;99.90
35129;DHT22;21301;43.626;10.580;2023-05-02T04:18:58;15.00;99.90
35129;DHT22;21301;43.626;10.580;2023-05-02T04:21:25;14.90;99.90
35129;DHT22;21301;43.626;10.580;2023-05-02T04:23:51;14.80;99.90
35129;DHT22;21301;43.626;10.580;2023-05-02T04:26:17;14.60;99.90
35129;DHT22;21301;43.626;10.580;2023-05-02T04:28:50;14.80;99.90
35129;DHT22;21301;43.626;10.580;2023-05-02T04:31:16;14.80;99.90
35129;DHT22;21301;43.626;10.580;2023-05-02T04:33:44;14.80;99.90
35129;DHT22;21301;43.626;10.580;2023-05-02T04:36:11;14.90;99.90
35129;DHT22;21301;43.626;10.580;2023-05-02T04:38:40;14.90;99.90
35129;DHT22;21301;43.626;10.580;2023-05-02T04:41:07;14.80;99.90
35129;DHT22;21301;43.626;10.580;2023-05-02T04:43:39;15.00;99.90
35129;DHT22;21301;43.626;10.580;2023-05-02T04:46:05;15.20;99.90
35129;DHT22;21301;43.626;10.580;2023-05-02T04:48:35;15.20;99.90
35129;DHT22;21301;43.626;10.580;2023-05-02T04:51:01;15.20;99.90
35129;DHT22;21301;43.626;10.580;2023-05-02T04:53:29;15.30;99.90
35129;DHT22;21301;43.626;10.580;2023-05-02T04:55:54;15.30;99.90
35129;DHT22;21301;43.626;10.580;2023-05-02T04:58:21;15.50;99.90
35129;DHT22;21301;43.626;10.580;2023-05-02T05:00:55;15.50;99.90
35129;DHT22;21301;43.626;10.580;2023-05-02T05:03:21;15.60;99.90
35129;DHT22;21301;43.626;10.580;2023-05-02T05:05:47;15.60;99.90
35129;DHT22;21301;43.626;10.580;2023-05-02T05:08:15;15.60;99.90
35129;DHT22;21301;43.626;10.580;2023-05-02T05:10:41;15.60;99.90
35129;DHT22;21301;43.626;10.580;2023-05-02T05:13:07;15.50;99.90
35129;DHT22;21301;43.626;10.580;2023-05-02T05:15:34;15.50;99.90
35129;DHT22;21301;43.626;10.580;2023-05-02T05:18:01;15.40;99.90
35129;DHT22;21301;43.626;10.580;2023-05-02T05:20:27;15.40;99.90
35129;DHT22;21301;43.626;10.580;2023-05-02T05:22:58;15.40;99.90
35129;DHT22;21301;43.626;10.580;2023-05-02T05:25:26;15.40;99.90
35129;DHT22;21301;43.626;10.580;2023-05-02T05:27:56;15.30;99.90
35129;DHT22;21301;43.626;10.580;2023-05-02T05:30:24;15.30;99.90
35129;DHT22;21301;43.626;10.580;2023-05-02T05:32:51;15.30;99.90
35129;DHT22;21301;43.626;10.580;2023-05-02T05:35:17;15.40;99.90
35129;DHT22;21301;43.626;10.580;2023-05-02T05:37:44;15.30;99.90
35129;DHT22;21301;43.626;10.580;2023-05-02T05:40:12;15.30;99.90
35129;DHT22;21301;43.626;10.580;2023-05-02T05:42:42;15.40;99.90
35129;DHT22;21301;43.626;10.580;2023-05-02T05:45:14;15.40;99.90
35129;DHT22;21301;43.626;10.580;2023-05-02T05:47:42;15.50;99.90
35129;DHT22;21301;43.626;10.580;2023-05-02T05:50:08;15.40;99.90
35129;DHT22;21301;43.626;10.580;2023-05-02T05:52:36;15.50;99.90
35129;DHT22;21301;43.626;10.580;2023-05-02T05:55:02;15.50;99.90
35129;DHT22;21301;43.626;10.580;2023-05-02T05:57:29;15.40;99.90
35129;DHT22;21301;43.626;10.580;2023-05-02T05:59:56;15.50;99.90
35129;DHT22;21301;43.626;10.580;2023-05-02T06:02:22;15.50;99.90
35129;DHT22;21301;43.626;10.580;2023-05-02T06:04:48;15.50;99.90
35129;DHT22;21301;43.626;10.580;2023-05-02T06:07:16;15.50;99.90
35129;DHT22;21301;43.626;10.580;2023-05-02T06:09:44;15.50;99.90
35129;DHT22;21301;43.626;10.580;2023-05-02T06:12:10;15.40;99.90
35129;DHT22;21301;43.626;10.580;2023-05-02T06:14:36;15.40;99.90
35129;DHT22;21301;43.626;10.580;2023-05-02T06:17:02;15.40;99.90
35129;DHT22;21301;43.626;10.580;2023-05-02T06:19:28;15.50;99.90
35129;DHT22;21301;43.626;10.580;2023-05-02T06:21:54;15.40;99.90
35129;DHT22;21301;43.626;10.580;2023-05-02T06:24:21;15.50;99.90
35129;DHT22;21301;43.626;10.580;2023-05-02T06:26:47;15.40;99.90
35129;DHT22;21301;43.626;10.580;2023-05-02T06:29:14;15.40;99.90
35129;DHT22;21301;43.626;10.580;2023-05-02T06:31:40;15.40;99.90
35129;DHT22;21301;43.626;10.580;2023-05-02T06:34:05;15.40;99.90
35129;DHT22;21301;43.626;10.580;2023-05-02T06:36:31;15.40;99.90
35129;DHT22;21301;43.626;10.580;2023-05-02T06:38:57;15.60;99.90
35129;DHT22;21301;43.626;10.580;2023-05-02T06:41:23;15.60;99.90
35129;DHT22;21301;43.626;10.580;2023-05-02T06:43:49;15.70;99.90
35129;DHT22;21301;43.626;10.580;2023-05-02T06:46:14;15.70;99.90
35129;DHT22;21301;43.626;10.580;2023-05-02T06:48:40;15.70;99.90
35129;DHT22;21301;43.626;10.580;2023-05-02T06:51:06;16.60;99.90
35129;DHT22;21301;43.626;10.580;2023-05-02T06:53:32;17.00;99.90
35129;DHT22;21301;43.626;10.580;2023-05-02T06:55:58;17.20;99.90
35129;DHT22;21301;43.626;10.580;2023-05-02T06:58:23;17.40;99.90
35129;DHT22;21301;43.626;10.580;2023-05-02T07:00:49;17.50;99.90
35129;DHT22;21301;43.626;10.580;2023-05-02T07:03:15;17.60;99.90
35129;DHT22;21301;43.626;10.580;2023-05-02T07:05:41;17.90;99.90
35129;DHT22;21301;43.626;10.580;2023-05-02T07:08:06;18.00;99.90
35129;DHT22;21301;43.626;10.580;2023-05-02T07:10:33;18.10;99.90
35129;DHT22;21301;43.626;10.580;2023-05-02T07:12:59;18.10;99.90
35129;DHT22;21301;43.626;10.580;2023-05-02T07:15:25;18.10;99.90
35129;DHT22;21301;43.626;10.580;2023-05-02T07:17:50;18.30;99.90
35129;DHT22;21301;43.626;10.580;2023-05-02T07:20:16;18.40;99.90
35129;DHT22;21301;43.626;10.580;2023-05-02T07:22:42;18.30;99.90
35129;DHT22;21301;43.626;10.580;2023-05-02T07:25:08;18.40;99.90
35129;DHT22;21301;43.626;10.580;2023-05-02T07:27:34;18.50;99.90
35129;DHT22;21301;43.626;10.580;2023-05-02T07:30:00;18.50;99.90
35129;DHT22;21301;43.626;10.580;2023-05-02T07:32:26;18.70;99.90
35129;DHT22;21301;43.626;10.580;2023-05-02T07:34:52;18.70;99.90
35129;DHT22;21301;43.626;10.580;2023-05-02T07:37:23;18.80;99.90
35129;DHT22;21301;43.626;10.580;2023-05-02T07:39:49;18.70;99.90
35129;DHT22;21301;43.626;10.580;2023-05-02T07:42:14;18.60;99.90
35129;DHT22;21301;43.626;10.580;2023-05-02T07:44:40;18.10;99.90
35129;DHT22;21301;43.626;10.580;2023-05-02T07:47:07;18.10;99.90
35129;DHT22;21301;43.626;10.580;2023-05-02T07:49:33;18.30;99.90
35129;DHT22;21301;43.626;10.580;2023-05-02T07:51:59;18.50;99.90
35129;DHT22;21301;43.626;10.580;2023-05-02T07:54:24;18.60;99.90
35129;DHT22;21301;43.626;10.580;2023-05-02T07:56:53;18.50;99.90
35129;DHT22;21301;43.626;10.580;2023-05-02T07:59:21;18.50;99.90
35129;DHT22;21301;43.626;10.580;2023-05-02T08:01:47;18.00;99.90
35129;DHT22;21301;43.626;10.580;2023-05-02T08:04:13;18.00;99.90
35129;DHT22;21301;43.626;10.580;2023-05-02T08:06:39;18.30;99.90
35129;DHT22;21301;43.626;10.580;2023-05-02T08:09:05;18.40;99.90
35129;DHT22;21301;43.626;10.580;2023-05-02T08:11:31;18.40;99.90
35129;DHT22;21301;43.626;10.580;2023-05-02T08:13:56;18.50;99.90
35129;DHT22;21301;43.626;10.580;2023-05-02T08:16:22;18.40;99.90
35129;DHT22;21301;43.626;10.580;2023-05-02T08:18:48;18.80;99.90
35129;DHT22;21301;43.626;10.580;2023-05-02T08:21:14;19.00;99.90
35129;DHT22;21301;43.626;10.580;2023-05-02T08:23:40;19.20;99.90
35129;DHT22;21301;43.626;10.580;2023-05-02T08:26:06;19.20;99.90
35129;DHT22;21301;43.626;10.580;2023-05-02T08:28:35;19.50;99.90
35129;DHT22;21301;43.626;10.580;2023-05-02T08:31:00;19.60;99.90
35129;DHT22;21301;43.626;10.580;2023-05-02T08:33:26;19.80;99.90
35129;DHT22;21301;43.626;10.580;2023-05-02T08:35:52;19.60;99.90
35129;DHT22;21301;43.626;10.580;2023-05-02T08:38:18;19.80;99.90
35129;DHT22;21301;43.626;10.580;2023-05-02T08:40:43;19.80;99.90
35129;DHT22;21301;43.626;10.580;2023-05-02T08:43:12;20.00;99.90
35129;DHT22;21301;43.626;10.580;2023-05-02T08:45:43;20.20;99.90
35129;DHT22;21301;43.626;10.580;2023-05-02T08:48:10;20.40;99.90
35129;DHT22;21301;43.626;10.580;2023-05-02T08:50:41;20.30;99.90
35129;DHT22;21301;43.626;10.580;2023-05-02T08:53:10;20.70;99.90
35129;DHT22;21301;43.626;10.580;2023-05-02T08:55:37;20.80;99.90
35129;DHT22;21301;43.626;10.580;2023-05-02T08:58:07;20.80;99.90
35129;DHT22;21301;43.626;10.580;2023-05-02T09:00:38;20.80;99.90
35129;DHT22;21301;43.626;10.580;2023-05-02T09:03:20;20.80;99.90
35129;DHT22;21301;43.626;10.580;2023-05-02T09:05:53;20.70;99.90
35129;DHT22;21301;43.626;10.580;2023-05-02T09:08:23;20.90;99.90
35129;DHT22;21301;43.626;10.580;2023-05-02T09:10:50;21.00;99.90
35129;DHT22;21301;43.626;10.580;2023-05-02T09:18:37;21.40;99.90
35129;DHT22;21301;43.626;10.580;2023-05-02T09:21:20;21.20;99.90
35129;DHT22;21301;43.626;10.580;2023-05-02T09:23:49;21.40;99.90
35129;DHT22;21301;43.626;10.580;2023-05-02T09:26:20;21.40;99.90
35129;DHT22;21301;43.626;10.580;2023-05-02T09:28:51;21.20;99.90
35129;DHT22;21301;43.626;10.580;2023-05-02T09:31:22;21.10;99.90
35129;DHT22;21301;43.626;10.580;2023-05-02T09:33:48;20.80;99.90
35129;DHT22;21301;43.626;10.580;2023-05-02T09:36:16;20.80;99.90
35129;DHT22;21301;43.626;10.580;2023-05-02T09:38:43;20.60;99.90
35129;DHT22;21301;43.626;10.580;2023-05-02T09:41:11;20.60;99.90
35129;DHT22;21301;43.626;10.580;2023-05-02T09:43:37;20.40;99.90
35129;DHT22;21301;43.626;10.580;2023-05-02T09:46:04;20.40;99.90
35129;DHT22;21301;43.626;10.580;2023-05-02T09:48:35;20.50;99.90
35129;DHT22;21301;43.626;10.580;2023-05-02T09:51:19;20.30;99.90
35129;DHT22;21301;43.626;10.580;2023-05-02T09:53:45;20.30;99.90
35129;DHT22;21301;43.626;10.580;2023-05-02T09:56:11;20.50;99.90
35129;DHT22;21301;43.626;10.580;2023-05-02T09:58:37;20.40;99.90
35129;DHT22;21301;43.626;10.580;2023-05-02T10:01:03;20.50;99.90
35129;DHT22;21301;43.626;10.580;2023-05-02T10:03:29;20.70;99.90
35129;DHT22;21301;43.626;10.580;2023-05-02T10:05:57;20.60;99.90
35129;DHT22;21301;43.626;10.580;2023-05-02T10:08:27;20.60;99.90
35129;DHT22;21301;43.626;10.580;2023-05-02T10:10:56;20.80;99.90
35129;DHT22;21301;43.626;10.580;2023-05-02T10:13:24;21.00;99.90
35129;DHT22;21301;43.626;10.580;2023-05-02T10:16:12;21.10;99.90
35129;DHT22;21301;43.626;10.580;2023-05-02T10:21:19;20.90;99.90
35129;DHT22;21301;43.626;10.580;2023-05-02T10:23:49;21.10;99.90
35129;DHT22;21301;43.626;10.580;2023-05-02T10:26:18;21.00;99.90
35129;DHT22;21301;43.626;10.580;2023-05-02T10:28:46;21.00;99.90
35129;DHT22;21301;43.626;10.580;2023-05-02T10:31:12;21.00;99.90
35129;DHT22;21301;43.626;10.580;2023-05-02T10:33:39;21.00;99.90
35129;DHT22;21301;43.626;10.580;2023-05-02T10:36:10;21.10;99.90
35129;DHT22;21301;43.626;10.580;2023-05-02T10:38:39;21.10;99.90
35129;DHT22;21301;43.626;10.580;2023-05-02T10:41:12;21.00;99.90
35129;DHT22;21301;43.626;10.580;2023-05-02T10:43:39;21.00;99.90
35129;DHT22;21301;43.626;10.580;2023-05-02T10:46:28;21.00;99.90
35129;DHT22;21301;43.626;10.580;2023-05-02T10:49:11;21.00;99.90
35129;DHT22;21301;43.626;10.580;2023-05-02T10:51:41;21.30;99.90
35129;DHT22;21301;43.626;10.580;2023-05-02T10:59:38;21.90;99.90
35129;DHT22;21301;43.626;10.580;2023-05-02T11:07:27;21.80;99.90
35129;DHT22;21301;43.626;10.580;2023-05-02T11:10:23;21.90;99.90
35129;DHT22;21301;43.626;10.580;2023-05-02T11:12:57;22.20;99.90
35129;DHT22;21301;43.626;10.580;2023-05-02T11:20:28;21.60;99.90
35129;DHT22;21301;43.626;10.580;2023-05-02T11:23:21;21.50;99.90
35129;DHT22;21301;43.626;10.580;2023-05-02T11:25:52;21.40;99.90
35129;DHT22;21301;43.626;10.580;2023-05-02T11:31:04;21.50;99.90
35129;DHT22;21301;43.626;10.580;2023-05-02T11:33:30;21.50;99.90
35129;DHT22;21301;43.626;10.580;2023-05-02T11:35:56;21.40;99.90
35129;DHT22;21301;43.626;10.580;2023-05-02T11:38:24;21.60;99.90
35129;DHT22;21301;43.626;10.580;2023-05-02T11:40:54;21.60;99.90
35129;DHT22;21301;43.626;10.580;2023-05-02T11:43:22;21.50;99.90
35129;DHT22;21301;43.626;10.580;2023-05-02T11:45:49;21.70;99.90
35129;DHT22;21301;43.626;10.580;2023-05-02T11:48:17;22.00;99.90
35129;DHT22;21301;43.626;10.580;2023-05-02T11:50:51;22.20;99.90
35129;DHT22;21301;43.626;10.580;2023-05-02T11:53:24;22.30;99.90
35129;DHT22;21301;43.626;10.580;2023-05-02T11:55:52;22.40;99.90
35129;DHT22;21301;43.626;10.580;2023-05-02T11:58:21;22.30;99.90
35129;DHT22;21301;43.626;10.580;2023-05-02T12:00:48;22.40;99.90
35129;DHT22;21301;43.626;10.580;2023-05-02T12:05:53;22.70;99.90
35129;DHT22;21301;43.626;10.580;2023-05-02T12:08:26;22.40;99.90
35129;DHT22;21301;43.626;10.580;2023-05-02T12:10:56;22.20;99.90
35129;DHT22;21301;43.626;10.580;2023-05-02T12:13:23;22.30;99.90
35129;DHT22;21301;43.626;10.580;2023-05-02T12:15:50;22.40;99.90
35129;DHT22;21301;43.626;10.580;2023-05-02T12:18:17;22.60;99.90
35129;DHT22;21301;43.626;10.580;2023-05-02T12:20:43;22.60;99.70
35129;DHT22;21301;43.626;10.580;2023-05-02T12:23:10;22.70;99.90
35129;DHT22;21301;43.626;10.580;2023-05-02T12:25:40;23.00;99.90
35129;DHT22;21301;43.626;10.580;2023-05-02T12:28:07;22.80;99.30
35129;DHT22;21301;43.626;10.580;2023-05-02T12:30:34;22.70;99.50
35129;DHT22;21301;43.626;10.580;2023-05-02T12:33:03;22.60;99.50
35129;DHT22;21301;43.626;10.580;2023-05-02T12:35:31;22.40;99.40
35129;DHT22;21301;43.626;10.580;2023-05-02T12:40:35;22.50;98.90
35129;DHT22;21301;43.626;10.580;2023-05-02T12:43:02;22.20;99.00
35129;DHT22;21301;43.626;10.580;2023-05-02T12:45:30;22.40;99.50
35129;DHT22;21301;43.626;10.580;2023-05-02T12:50:47;22.50;99.40
35129;DHT22;21301;43.626;10.580;2023-05-02T12:53:13;22.50;99.20
35129;DHT22;21301;43.626;10.580;2023-05-02T12:55:39;22.70;99.30
35129;DHT22;21301;43.626;10.580;2023-05-02T12:58:07;22.50;99.40
35129;DHT22;21301;43.626;10.580;2023-05-02T13:00:35;22.50;99.60
35129;DHT22;21301;43.626;10.580;2023-05-02T13:03:02;22.30;99.90
35129;DHT22;21301;43.626;10.580;2023-05-02T13:05:28;22.20;99.90
35129;DHT22;21301;43.626;10.580;2023-05-02T13:07:53;21.90;99.90
35129;DHT22;21301;43.626;10.580;2023-05-02T13:10:21;21.90;99.90
35129;DHT22;21301;43.626;10.580;2023-05-02T13:12:49;21.80;99.90
35129;DHT22;21301;43.626;10.580;2023-05-02T13:15:15;21.60;99.90
35129;DHT22;21301;43.626;10.580;2023-05-02T13:17:40;21.50;99.90
35129;DHT22;21301;43.626;10.580;2023-05-02T13:20:07;21.50;99.90
35129;DHT22;21301;43.626;10.580;2023-05-02T13:22:34;21.60;99.90
35129;DHT22;21301;43.626;10.580;2023-05-02T13:25:02;21.50;99.90
35129;DHT22;21301;43.626;10.580;2023-05-02T13:27:28;21.40;99.90
35129;DHT22;21301;43.626;10.580;2023-05-02T13:29:53;21.40;99.90
35129;DHT22;21301;43.626;10.580;2023-05-02T13:32:19;21.10;99.90
35129;DHT22;21301;43.626;10.580;2023-05-02T13:34:46;21.20;99.90
35129;DHT22;21301;43.626;10.580;2023-05-02T13:37:12;21.20;99.90
35129;DHT22;21301;43.626;10.580;2023-05-02T13:39:38;21.20;99.90
35129;DHT22;21301;43.626;10.580;2023-05-02T13:42:03;21.00;99.90
35129;DHT22;21301;43.626;10.580;2023-05-02T13:44:31;20.70;99.90
35129;DHT22;21301;43.626;10.580;2023-05-02T13:46:57;20.80;99.90
35129;DHT22;21301;43.626;10.580;2023-05-02T13:49:23;20.70;99.90
35129;DHT22;21301;43.626;10.580;2023-05-02T13:51:49;20.70;99.90
35129;DHT22;21301;43.626;10.580;2023-05-02T13:54:15;20.80;99.90
35129;DHT22;21301;43.626;10.580;2023-05-02T13:56:41;20.60;99.90
35129;DHT22;21301;43.626;10.580;2023-05-02T13:59:08;20.80;99.90
35129;DHT22;21301;43.626;10.580;2023-05-02T14:01:34;20.60;99.90
35129;DHT22;21301;43.626;10.580;2023-05-02T14:04:00;20.60;99.90
35129;DHT22;21301;43.626;10.580;2023-05-02T14:06:31;20.60;99.90
35129;DHT22;21301;43.626;10.580;2023-05-02T14:08:57;20.50;99.90
35129;DHT22;21301;43.626;10.580;2023-05-02T14:11:23;20.50;99.90
35129;DHT22;21301;43.626;10.580;2023-05-02T14:13:49;20.50;99.90
35129;DHT22;21301;43.626;10.580;2023-05-02T14:16:15;20.50;99.90
35129;DHT22;21301;43.626;10.580;2023-05-02T14:18:40;20.50;99.90
35129;DHT22;21301;43.626;10.580;2023-05-02T14:21:06;20.60;99.90
35129;DHT22;21301;43.626;10.580;2023-05-02T14:23:32;20.90;99.90
35129;DHT22;21301;43.626;10.580;2023-05-02T14:25:59;21.40;99.90
35129;DHT22;21301;43.626;10.580;2023-05-02T14:28:26;21.30;99.90
35129;DHT22;21301;43.626;10.580;2023-05-02T14:30:52;21.20;99.90
35129;DHT22;21301;43.626;10.580;2023-05-02T14:33:18;21.00;99.90
35129;DHT22;21301;43.626;10.580;2023-05-02T14:35:44;21.10;99.90
35129;DHT22;21301;43.626;10.580;2023-05-02T14:38:10;21.00;99.90
35129;DHT22;21301;43.626;10.580;2023-05-02T14:40:36;20.70;99.90
35129;DHT22;21301;43.626;10.580;2023-05-02T14:43:02;20.60;99.90
35129;DHT22;21301;43.626;10.580;2023-05-02T14:45:29;20.60;99.90
35129;DHT22;21301;43.626;10.580;2023-05-02T14:47:55;20.80;99.90
35129;DHT22;21301;43.626;10.580;2023-05-02T14:50:22;20.80;99.90
35129;DHT22;21301;43.626;10.580;2023-05-02T14:52:48;20.80;99.90
35129;DHT22;21301;43.626;10.580;2023-05-02T14:55:14;20.90;99.90
35129;DHT22;21301;43.626;10.580;2023-05-02T14:57:40;20.70;99.90
35129;DHT22;21301;43.626;10.580;2023-05-02T15:00:08;20.80;99.90
35129;DHT22;21301;43.626;10.580;2023-05-02T15:02:37;20.50;99.90
35129;DHT22;21301;43.626;10.580;2023-05-02T15:05:04;20.50;99.90
35129;DHT22;21301;43.626;10.580;2023-05-02T15:07:37;20.40;99.90
35129;DHT22;21301;43.626;10.580;2023-05-02T15:10:03;20.30;99.90
35129;DHT22;21301;43.626;10.580;2023-05-02T15:12:28;20.20;99.90
35129;DHT22;21301;43.626;10.580;2023-05-02T15:14:54;20.00;99.90
35129;DHT22;21301;43.626;10.580;2023-05-02T15:17:20;20.00;99.90
35129;DHT22;21301;43.626;10.580;2023-05-02T15:19:46;19.90;99.90
35129;DHT22;21301;43.626;10.580;2023-05-02T15:22:12;19.90;99.90
35129;DHT22;21301;43.626;10.580;2023-05-02T15:24:37;19.90;99.90
35129;DHT22;21301;43.626;10.580;2023-05-02T15:27:03;19.70;99.90
35129;DHT22;21301;43.626;10.580;2023-05-02T15:29:29;19.60;99.90
35129;DHT22;21301;43.626;10.580;2023-05-02T15:31:55;19.60;99.90
35129;DHT22;21301;43.626;10.580;2023-05-02T15:34:20;19.60;99.90
35129;DHT22;21301;43.626;10.580;2023-05-02T15:36:46;19.40;99.90
35129;DHT22;21301;43.626;10.580;2023-05-02T15:39:12;19.40;99.90
35129;DHT22;21301;43.626;10.580;2023-05-02T15:41:37;19.50;99.90
35129;DHT22;21301;43.626;10.580;2023-05-02T15:44:03;19.40;99.90
35129;DHT22;21301;43.626;10.580;2023-05-02T15:46:29;19.30;99.90
35129;DHT22;21301;43.626;10.580;2023-05-02T15:48:55;19.40;99.90
35129;DHT22;21301;43.626;10.580;2023-05-02T15:51:21;19.30;99.90
35129;DHT22;21301;43.626;10.580;2023-05-02T15:53:47;19.40;99.90
35129;DHT22;21301;43.626;10.580;2023-05-02T15:56:16;19.30;99.90
35129;DHT22;21301;43.626;10.580;2023-05-02T15:58:43;19.20;99.90
35129;DHT22;21301;43.626;10.580;2023-05-02T16:01:09;19.10;99.90
35129;DHT22;21301;43.626;10.580;2023-05-02T16:03:35;19.10;99.90
35129;DHT22;21301;43.626;10.580;2023-05-02T16:06:01;19.00;99.90
35129;DHT22;21301;43.626;10.580;2023-05-02T16:08:29;18.90;99.90
35129;DHT22;21301;43.626;10.580;2023-05-02T16:10:55;18.80;99.90
35129;DHT22;21301;43.626;10.580;2023-05-02T16:13:22;18.70;99.90
35129;DHT22;21301;43.626;10.580;2023-05-02T16:15:48;18.70;99.90
35129;DHT22;21301;43.626;10.580;2023-05-02T16:18:16;18.60;99.90
35129;DHT22;21301;43.626;10.580;2023-05-02T16:20:42;18.60;99.90
35129;DHT22;21301;43.626;10.580;2023-05-02T16:23:08;18.60;99.90
35129;DHT22;21301;43.626;10.580;2023-05-02T16:25:34;18.60;99.90
35129;DHT22;21301;43.626;10.580;2023-05-02T16:28:00;18.60;99.90
35129;DHT22;21301;43.626;10.580;2023-05-02T16:30:26;18.50;99.90
35129;DHT22;21301;43.626;10.580;2023-05-02T16:32:53;18.50;99.90
35129;DHT22;21301;43.626;10.580;2023-05-02T16:35:19;18.50;99.90
35129;DHT22;21301;43.626;10.580;2023-05-02T16:37:45;18.50;99.90
35129;DHT22;21301;43.626;10.580;2023-05-02T16:40:11;18.50;99.90
35129;DHT22;21301;43.626;10.580;2023-05-02T16:42:37;18.50;99.90
35129;DHT22;21301;43.626;10.580;2023-05-02T16:45:05;18.50;99.90
35129;DHT22;21301;43.626;10.580;2023-05-02T16:47:32;18.50;99.90
35129;DHT22;21301;43.626;10.580;2023-05-02T16:49:58;18.40;99.90
35129;DHT22;21301;43.626;10.580;2023-05-02T16:52:26;18.30;99.90
35129;DHT22;21301;43.626;10.580;2023-05-02T16:54:53;18.20;99.90